• Join FlightAware (Why Join?)
  • Login
  • US Flag 
06:37PM EST


 

Airport Tracker/Info


-or-


 

Live Flight TrackerFlight Track Log ✈ CMF4MT ✈ 20-Apr-2013 ✈ KNEW - KEFD

Flight Track Log - Related Links

Times and Time Zones

All times are in EDT time to prevent confusion due to time zone crossing. See the CMF4MT flight status page for this flight to view local times or setup timezone preferences in your user account.

Time Position Orientation Groundspeed Altitude Reporting Facility
EDT Latitude Longitude Course Direction KTS MPH feet Rate Location/Type
01:37PM 29.6769 -93.1764 266° West 155 178 4,000  Level Houston Center
01:38PM 29.6778 -93.2247 271° West 153 176 4,000  Level Houston Center
01:39PM 29.6786 -93.2742 271° West 153 176 4,000  Level Houston Center
01:40PM 29.6789 -93.3217 270° West 152 175 4,000  Level Houston Center
01:41PM 29.6803 -93.3750 272° West 155 178 4,000  Level Houston Center
01:42PM 29.7680 -93.5232 266° West  Level Estimated
01:42PM 29.6822 -93.4194 273° West 152 175 4,100  Level Houston Center
01:42PM 29.6814 -93.4447 268° West 151 174 4,100  Level Houston Center
01:43PM 29.6814 -93.4689 270° West 153 176 4,100  Level Houston Center
01:43PM 29.6803 -93.4953 267° West 152 175 4,100  Level Houston Center
01:44PM 29.6797 -93.5275 269° West 153 176 4,100  Level Houston Center
01:44PM 29.6811 -93.5433 276° West 153 176 4,100 -120 Level Houston Center
01:45PM 29.6817 -93.5764 271° West 153 176 4,000 -120 Descending Houston Center
01:45PM 29.6822 -93.5939 272° West 153 176 4,000  Level Houston Center
01:46PM 29.6828 -93.6239 271° West 151 174 4,000  Level Houston Center
01:46PM 29.6817 -93.6469 267° West 154 177 4,000  Level Houston Center
01:47PM 29.6797 -93.6722 265° West 151 174 4,000  Level Houston Center
01:48PM 29.6764 -93.7206 265° West 151 174 4,000  Level Houston Center
01:49PM 29.6750 -93.7706 268° West 154 177 4,000  Level Houston Center
01:50PM 29.6731 -93.8278 268° West 151 174 4,000  Level Houston Center
01:51PM 29.6703 -93.8756 266° West 151 174 4,000  Level Houston Center
01:52PM 29.6697 -93.9233 269° West 150 173 4,000  Level Houston Center
01:53PM 29.6656 -93.9711 264° West 151 174 4,000 -60 Level Houston Center
01:54PM 29.6642 -94.0192 268° West 151 174 3,900  Descending Houston Center
01:55PM 29.6611 -94.0806 267° West 152 175 4,000  Climbing Houston Center
01:56PM 29.6594 -94.1272 268° West 152 175 3,900  Descending Houston Center
01:57PM 29.6567 -94.1822 267° West 153 176 4,000  Climbing Houston Center
01:58PM 29.6567 -94.2189 270° West 155 178 4,000  Level Houston Center
01:59PM 29.6514 -94.2758 264° West 151 174 4,000  Level Houston Center
02:00PM 29.6511 -94.3239 270° West 150 173 4,000  Level Houston Center
02:01PM 29.6486 -94.3717 267° West 151 174 4,000  Level Houston Center
02:02PM 29.6461 -94.4203 267° West 152 175 4,000  Level Houston Center
02:03PM 29.6439 -94.4694 267° West 155 178 4,000  Level Houston Center
02:04PM 29.6414 -94.5169 267° West 151 174 4,000  Level Houston Center
02:06PM 29.6394 -94.5792 268° West 151 174 4,000  Level Houston Center
02:07PM 29.6364 -94.6222 265° West 151 174 4,000  Level Houston Center
02:08PM 29.6336 -94.6714 266° West 151 174 4,000  Level Houston Center
02:09PM 29.6303 -94.7222 266° West 149 171 4,000 -180 Level Houston Center
02:10PM 29.6272 -94.7647 265° West 147 169 3,700 -240 Descending Houston Center
02:11PM 29.6250 -94.8142 267° West 150 173 3,500 -360 Descending Houston Center
02:12PM 29.6236 -94.8725 268° West 152 175 3,000 -300 Descending Houston Center
02:13PM 29.6208 -94.9206 266° West 152 175 3,000 -120 Level Houston Center
02:14PM 29.6178 -94.9667 266° West 143 165 2,800 -300 Descending Houston Center
02:15PM 29.6156 -95.0103 267° West 148 170 2,500 -360 Descending Houston Center
02:16PM 29.6136 -95.0608 267° West 148 170 2,100 -300 Descending Houston Center
02:17PM 29.6119 -95.1044 267° West 147 169 1,900 -300 Descending Houston Center
02:17PM 29.6122 -95.1089 274° West 150 173 1,800  Descending Houston Center
02:18PM 29.6558 -95.1294 338° Northwest 147 169 1,900 -240 Climbing Houston Center
02:19PM 29.6575 -95.1639 273° West 116 133 1,400 -780 Descending Houston Center
02:20PM 29.6306 -95.1644 181° South 105 121 400 -600 Descending Houston Center
02:21PM 29.6058 -95.1631 177° South 93 107 100 -300 Descending Houston Center